KBQK/BQK METAR and TAF weather

Enter ICAO airport designator
Station Type Date Time Source
KBQK METAR 2018/10/16 21:35 UTC NOAA

KBQK 162135Z AUTO 13008KT 10SM CLR 29/22 A3008 RMK AO2


Station Type Date Time Source
KBQK Decoded METAR 2018/10/16 21:35 UTC NOAA

Brunswick / Glynco, GA, United States (KBQK) 31-15N 081-28W
Oct 16, 2018 - 05:35 PM EDT / 2018.10.16 2135 UTC
Wind: from the SE (130 degrees) at 9 MPH (8 KT):0
Visibility: 10 mile(s):0
Sky conditions: clear
Temperature: 84 F (29 C)
Dew Point: 71 F (22 C)
Relative Humidity: 65%
Pressure (altimeter): 30.08 in. Hg (1018 hPa)
ob: KBQK 162135Z AUTO 13008KT 10SM CLR 29/22 A3008 RMK AO2
cycle: 21

Station Type Date Time Source
KBQK TAF UTC NOAA

Error!


Example: see airport list